메인 페이지
METAR-TAF:

METAR-TAF

공항 :

트라브존 공항

트라브존, 터키

위도: 41-00N, 경도: 039-43E, 고도: 35m

현재 날씨관측

예보는 20분 전, 17:20시(UTC)에 발표되었습니다.
서북서8kt
온도 9°C
습도 93%
기압 1009 hPa
시정 10km 이상
고도 3500ft 상공 구름 보통
고도 10000ft 상공 구름 많음

METAR: LTCG 241720Z 29008KT 9999 SCT035 BKN100 09/08 Q1009 NOSIG RMK RWY29 28009KT

시각: 20:40 (17:40 UTC)

예보

예보는 1 시간 0분 전, 16:40시(UTC)에 발표되었습니다.
예보 대상 시간: 24일 18시부터 25일 18시까지 (UTC)
서남서9kt
시정 10km 이상
고도 3500ft 상공 구름 보통
고도 10000ft 상공 구름 많음
전환 중
24일 18시부터 24일 21시까지 (UTC)
서북서20kt, 순간 최대 풍속 35kt
고도 1200ft 상공 구름 보통
고도 2800ft 상공 구름 많음
약한소나기
일시적
24일 21시부터 25일 01시까지 (UTC)
시정: 3200m
고도 600ft 상공 구름 많음
고도 2500ft 상공 구름 많음
소나기
확률 30% :
일시적
25일 01시부터 25일 05시까지 (UTC)
시정: 4000m
고도 800ft 상공 구름 많음
고도 2500ft 상공 구름 많음
소나기
전환 중
25일 05시부터 25일 08시까지 (UTC)
14kt

TAF: LTCG 241640Z 2418/2518 24009KT 9999 SCT035 BKN100 BECMG 2418/2421 30020G35KT -SHRA SCT012 BKN028 TEMPO 2421/2501 3200 SHRA BKN006 BKN025 PROB30 TEMPO 2501/2505 4000 SHRA BKN008 BKN025 BECMG 2505/2508 27014KT

4,000개 이상의 공항 관측 자료 및 예보 (METAR 및 TAF 보고).

지도상에서 검색 가능한 기상관측소가 노란 점과 빨간 점으로 표시되어 있습니다.

기상관측소 명을 보려면 표시 위로 마우스를 이동하세요.

날씨 관측과 예보를 보려면 클릭하세요.

지도 변경 : 확대하려면 엑스 표시가 있는 녹색 버튼, 축소하려면 빼기 표시가 있는 녹색 버튼, 다음 페이지의 지도를 보려면 녹색 화살표를 클릭하세요.


METAR-TAF: